Time;durP1;ratioP1;P1;durP2;ratioP2;P2;SDS_P1;SDS_P2;PMS_P1;PMS_P2;Temp;Humidity;BMP_temperature;BMP_pressure;BME280_temperature;BME280_humidity;BME280_pressure;Samples;Min_cycle;Max_cycle;Signal;HPM_P1;HPM_P2
2021/12/10 06:10:08;;;;;;;105.78;42.30;;;;;;;-0.44;100.00;97423.16;2346040;76;23298;-86
2021/12/10 06:13:09;;;;;;;102.22;44.30;;;;;;;-0.42;100.00;97420.45;2315504;77;20994;-82
2021/12/10 06:16:09;;;;;;;87.90;40.67;;;;;;;-0.38;100.00;97423.86;2315299;77;21574;-82
2021/12/10 06:19:10;;;;;;;81.35;36.58;;;;;;;-0.31;100.00;97416.39;2315527;77;20949;-82
2021/12/10 06:22:11;;;;;;;67.12;31.80;;;;;;;-0.19;100.00;97422.16;2315586;77;21016;-82
2021/12/10 06:25:12;;;;;;;65.75;31.42;;;;;;;-0.08;100.00;97424.55;2315460;77;21019;-82
2021/12/10 06:28:13;;;;;;;61.05;29.75;;;;;;;0.05;100.00;97431.44;2315400;77;20977;-83
2021/12/10 06:31:14;;;;;;;66.37;32.17;;;;;;;0.16;100.00;97425.27;2315726;77;21031;-83
2021/12/10 06:34:14;;;;;;;64.72;31.57;;;;;;;0.24;100.00;97420.21;2315643;77;20977;-82
2021/12/10 06:37:15;;;;;;;62.93;31.33;;;;;;;0.31;100.00;97426.88;2315397;77;21031;-82
2021/12/10 06:40:16;;;;;;;61.28;32.48;;;;;;;0.38;100.00;97426.64;2315270;77;20965;-82
2021/12/10 06:43:17;;;;;;;60.25;29.95;;;;;;;0.42;100.00;97434.39;2315160;77;20984;-82
2021/12/10 06:46:18;;;;;;;59.27;30.62;;;;;;;0.50;100.00;97435.27;2315071;77;21113;-83
2021/12/10 06:49:19;;;;;;;61.33;32.23;;;;;;;0.50;100.00;97437.05;2315308;77;21023;-83
2021/12/10 06:52:19;;;;;;;65.75;31.82;;;;;;;0.52;100.00;97434.64;2315517;77;20992;-83
2021/12/10 06:55:20;;;;;;;66.67;34.33;;;;;;;0.53;100.00;97425.95;2315381;77;20948;-81
2021/12/10 06:58:23;;;;;;;65.22;34.55;;;;;;;0.49;100.00;97436.71;2315369;77;20999;-83
2021/12/10 07:01:24;;;;;;;59.25;30.15;;;;;;;0.48;100.00;97437.19;2315176;77;20992;-83
2021/12/10 07:04:25;;;;;;;67.53;31.85;;;;;;;0.48;100.00;97451.36;2315266;77;21040;-83
2021/12/10 07:07:26;;;;;;;68.70;32.03;;;;;;;0.47;100.00;97461.33;2314433;75;21058;-82
2021/12/10 07:10:29;;;;;;;76.97;36.38;;;;;;;0.39;100.00;97451.42;2283539;78;20957;-83
2021/12/10 07:13:32;;;;;;;77.53;38.28;;;;;;;0.39;100.00;97451.42;2283410;78;21008;-83
2021/12/10 07:16:33;;;;;;;79.03;36.85;;;;;;;0.34;100.00;97447.98;2284118;77;21031;-83
2021/12/10 07:19:34;;;;;;;74.95;36.33;;;;;;;0.27;100.00;97454.22;2283834;78;20987;-83
2021/12/10 07:22:35;;;;;;;67.37;33.70;;;;;;;0.17;100.00;97457.30;2283395;78;20997;-83
2021/12/10 07:25:36;;;;;;;76.53;35.40;;;;;;;-0.01;100.00;97471.42;2283253;78;21000;-83
2021/12/10 07:28:36;;;;;;;76.62;35.83;;;;;;;-0.15;100.00;97459.53;2283430;78;20989;-83
2021/12/10 07:31:39;;;;;;;76.15;32.70;;;;;;;-0.18;100.00;97460.63;2282757;77;21004;-83
2021/12/10 07:34:40;;;;;;;65.67;33.33;;;;;;;-0.20;100.00;97457.84;2283330;77;21526;-83
2021/12/10 07:37:41;;;;;;;71.50;33.80;;;;;;;-0.16;100.00;97448.91;2283174;77;21028;-82
2021/12/10 07:40:42;;;;;;;75.25;35.03;;;;;;;-0.16;100.00;97448.91;2283141;77;21036;-83
2021/12/10 07:43:43;;;;;;;65.47;32.23;;;;;;;-0.18;100.00;97450.34;2283368;78;20937;-83
2021/12/10 07:46:44;;;;;;;72.78;36.93;;;;;;;-0.13;100.00;97455.84;2283156;77;21063;-83
2021/12/10 07:49:44;;;;;;;72.42;37.42;;;;;;;-0.10;100.00;97456.84;2255043;78;21518;-83
2021/12/10 07:52:45;;;;;;;77.72;35.98;;;;;;;-0.03;100.00;97460.47;2283489;78;20990;-83
2021/12/10 07:55:47;;;;;;;72.80;36.28;;;;;;;0.06;100.00;97457.52;2283089;78;21000;-82
2021/12/10 07:58:48;;;;;;;77.50;38.98;;;;;;;0.14;100.00;97464.52;2283362;78;21043;-82
2021/12/10 08:01:48;;;;;;;84.28;40.83;;;;;;;0.21;100.00;97468.95;2283348;78;20945;-82
2021/12/10 08:04:49;;;;;;;89.95;47.10;;;;;;;0.27;100.00;97472.69;2283218;78;21204;-83
2021/12/10 08:07:50;;;;;;;73.75;36.30;;;;;;;0.32;100.00;97473.08;2284187;77;20941;-85
2021/12/10 08:10:51;;;;;;;70.42;36.23;;;;;;;0.39;100.00;97475.89;2301183;77;20963;-83
2021/12/10 08:13:52;;;;;;;62.58;34.03;;;;;;;0.46;100.00;97470.02;2301260;77;21505;-83
2021/12/10 08:16:53;;;;;;;72.85;35.33;;;;;;;0.59;100.00;97472.22;2301394;77;20959;-83
2021/12/10 08:19:53;;;;;;;66.35;34.88;;;;;;;0.62;100.00;97479.64;2301167;77;21025;-83
2021/12/10 08:22:54;;;;;;;74.77;38.63;;;;;;;0.60;100.00;97488.48;2301284;77;21496;-83
2021/12/10 08:25:55;;;;;;;87.17;42.55;;;;;;;0.57;100.00;97490.89;2301367;77;20998;-84
2021/12/10 08:28:56;;;;;;;93.50;44.18;;;;;;;0.61;100.00;97499.92;2301251;77;21042;-84
2021/12/10 08:31:57;;;;;;;90.38;46.40;;;;;;;0.71;100.00;97494.70;2300860;77;21369;-82
2021/12/10 08:34:58;;;;;;;84.20;42.00;;;;;;;0.75;100.00;97499.44;2300769;77;21051;-83
2021/12/10 08:37:59;;;;;;;84.70;44.88;;;;;;;0.82;100.00;97486.30;2300986;77;20990;-83
2021/12/10 08:41:00;;;;;;;82.45;41.70;;;;;;;0.82;100.00;97494.48;2301121;77;21054;-83
2021/12/10 08:44:01;;;;;;;83.78;40.95;;;;;;;0.95;100.00;97495.41;2274688;77;21289;-82
2021/12/10 08:47:02;;;;;;;81.32;41.33;;;;;;;0.96;100.00;97488.00;2300817;77;20963;-83
2021/12/10 08:50:03;;;;;;;68.42;38.20;;;;;;;1.02;100.00;97495.16;2301806;77;21511;-82
2021/12/10 08:53:04;;;;;;;80.38;39.33;;;;;;;1.02;100.00;97506.75;2301215;77;21033;-84
2021/12/10 08:56:05;;;;;;;74.82;39.18;;;;;;;0.99;100.00;97508.31;2301334;77;20986;-83
2021/12/10 08:59:06;;;;;;;87.37;42.55;;;;;;;1.00;100.00;97512.03;2301150;77;21025;-83
2021/12/10 09:02:07;;;;;;;80.92;42.10;;;;;;;1.03;100.00;97513.05;2301233;77;20955;-83
2021/12/10 09:05:08;;;;;;;72.67;39.58;;;;;;;1.13;100.00;97520.21;2301369;77;20963;-84
2021/12/10 09:08:09;;;;;;;73.83;40.08;;;;;;;1.27;100.00;97527.07;2299714;77;21018;-83
2021/12/10 09:11:10;;;;;;;83.10;44.53;;;;;;;1.35;100.00;97521.49;2283244;78;21468;-83
2021/12/10 09:14:10;;;;;;;65.15;35.70;;;;;;;1.51;100.00;97525.16;2283233;77;20946;-84
2021/12/10 09:17:11;;;;;;;73.57;41.00;;;;;;;1.57;100.00;97525.38;2283209;78;20987;-83
2021/12/10 09:20:14;;;;;;;83.90;44.77;;;;;;;1.62;100.00;97532.16;2283192;78;21000;-83
2021/12/10 09:23:17;;;;;;;81.92;44.27;;;;;;;1.71;100.00;97530.44;2283156;78;21509;-84
2021/12/10 09:26:18;;;;;;;84.45;43.85;;;;;;;1.85;100.00;97522.63;2282997;78;20995;-84
2021/12/10 09:29:21;;;;;;;79.72;42.93;;;;;;;2.02;100.00;97509.32;2282020;77;20973;-83
2021/12/10 09:32:23;;;;;;;68.92;37.88;;;;;;;2.17;100.00;97515.50;2283027;77;20987;-83
2021/12/10 09:35:24;;;;;;;82.33;44.38;;;;;;;2.26;100.00;97511.50;2283419;78;20950;-83
2021/12/10 09:38:25;;;;;;;73.65;41.28;;;;;;;2.26;100.00;97508.11;2283120;78;20991;-83
2021/12/10 09:41:26;;;;;;;80.20;44.48;;;;;;;2.23;100.00;97494.22;2283059;77;20992;-83
2021/12/10 09:44:30;;;;;;;82.97;44.95;;;;;;;2.31;100.00;97499.91;2282826;77;21594;-83
2021/12/10 09:47:31;;;;;;;87.50;47.40;;;;;;;2.45;100.00;97492.34;2282887;77;21060;-83
2021/12/10 09:50:32;;;;;;;91.10;50.10;;;;;;;2.59;100.00;97487.54;2283085;78;21095;-82
2021/12/10 09:53:34;;;;;;;90.50;49.00;;;;;;;2.77;100.00;97485.14;2283406;78;21306;-83
2021/12/10 09:56:35;;;;;;;81.63;45.83;;;;;;;2.93;100.00;97483.06;2283043;77;21056;-83
2021/12/10 09:59:36;;;;;;;77.03;44.03;;;;;;;3.08;100.00;97481.91;2283032;77;21027;-83
2021/12/10 10:02:39;;;;;;;80.17;42.75;;;;;;;3.04;100.00;97463.34;2282245;77;21008;-83
2021/12/10 10:05:43;;;;;;;80.10;45.23;;;;;;;2.81;100.00;97473.98;2282825;77;20990;-83
2021/12/10 10:08:43;;;;;;;72.37;41.77;;;;;;;2.68;100.00;97464.61;2288224;77;21460;-83
2021/12/10 10:11:44;;;;;;;78.75;42.60;;;;;;;2.65;100.00;97461.88;2314186;77;20976;-83
2021/12/10 10:14:45;;;;;;;71.87;40.70;;;;;;;2.64;100.00;97457.64;2314279;77;21567;-83
2021/12/10 10:17:46;;;;;;;76.90;43.58;;;;;;;2.69;100.00;97454.11;2314446;77;20985;-82
2021/12/10 10:20:47;;;;;;;74.40;41.95;;;;;;;2.80;100.00;97461.55;2314487;77;21020;-83
2021/12/10 10:23:48;;;;;;;75.22;41.45;;;;;;;2.88;100.00;97458.64;2314405;77;21034;-82
2021/12/10 10:26:53;;;;;;;80.05;43.45;;;;;;;2.77;100.00;97467.53;2313655;77;21032;-83
2021/12/10 10:29:55;;;;;;;72.78;40.80;;;;;;;2.62;100.00;97466.53;2283489;77;21578;-83
2021/12/10 10:32:58;;;;;;;78.17;44.50;;;;;;;2.50;100.00;97472.50;2313265;77;21499;-83
2021/12/10 10:35:59;;;;;;;69.25;39.03;;;;;;;2.39;100.00;97469.73;2315172;77;20960;-83
2021/12/10 10:39:10;;;;;;;;;;;;;;;;;;;;;
2021/12/10 10:42:04;;;;;;;74.90;41.55;;;;;;;2.24;100.00;97451.44;2307419;77;21008;-83
2021/12/10 10:45:07;;;;;;;69.40;38.17;;;;;;;2.17;100.00;97465.95;2310099;77;21471;-83
2021/12/10 10:48:11;;;;;;;81.20;43.35;;;;;;;2.14;100.00;97464.98;2302266;77;21527;-82
2021/12/10 10:51:12;;;;;;;77.42;41.88;;;;;;;2.06;100.00;97468.02;2314558;77;21507;-84
2021/12/10 10:54:18;;;;;;;72.30;39.90;;;;;;;2.02;100.00;97456.39;2314300;77;21028;-84
2021/12/10 10:57:28;;;;;;;;;;;;;;;;;;;;;
2021/12/10 11:00:31;;;;;;;74.47;41.85;;;;;;;2.09;100.00;97434.92;2148546;82;21572;-81
2021/12/10 11:03:37;;;;;;;;;;;;;;;;;;;;;
2021/12/10 11:06:41;;;;;;;;;;;;;;;;;;;;;
2021/12/10 11:09:36;;;;;;;79.22;44.08;;;;;;;2.07;100.00;97454.13;2149049;82;21057;-82
2021/12/10 11:12:37;;;;;;;82.33;44.95;;;;;;;2.01;100.00;97455.55;2151289;83;21013;-81
2021/12/10 11:15:41;;;;;;;80.42;43.25;;;;;;;2.08;100.00;97459.62;2151484;83;21612;-81
2021/12/10 11:18:43;;;;;;;76.22;42.65;;;;;;;2.22;100.00;97462.42;2147157;83;20971;-82
2021/12/10 11:21:46;;;;;;;71.10;41.33;;;;;;;2.33;100.00;97465.67;2151353;83;21123;-83
2021/12/10 11:24:48;;;;;;;83.27;45.52;;;;;;;2.40;100.00;97468.77;2147984;83;21072;-83
2021/12/10 11:27:50;;;;;;;83.20;45.45;;;;;;;2.50;100.00;97475.89;2151821;82;21456;-83
2021/12/10 11:31:03;;;;;;;;;;;;;;;;;;;;;
2021/12/10 11:34:00;;;;;;;78.95;44.50;;;;;;;2.51;100.00;97470.23;2185696;81;22332;-82
2021/12/10 11:37:02;;;;;;;76.07;42.15;;;;;;;2.52;100.00;97471.36;2114960;84;21641;-82
2021/12/10 11:40:05;;;;;;;80.72;44.38;;;;;;;2.55;100.00;97474.11;2114580;84;21107;-83
2021/12/10 11:43:19;;;;;;;74.77;42.73;;;;;;;2.52;100.00;97477.83;2114662;84;21098;-83
2021/12/10 11:49:19;;;;;;;78.02;42.58;;;;;;;2.52;100.00;97493.81;2111930;84;21090;-83
2021/12/10 11:52:40;;;;;;;;;;;;;;;;;;;;;
2021/12/10 11:55:45;;;;;;;;;;;;;;;;;;;;;
2021/12/10 11:58:48;;;;;;;77.87;44.08;;;;;;;2.38;100.00;97489.24;2099407;84;21522;-82
2021/12/10 12:01:57;;;;;;;71.50;39.18;;;;;;;2.36;100.00;97477.78;2103321;84;21680;-81
2021/12/10 12:04:52;;;;;;;69.42;42.00;;;;;;;2.43;100.00;97476.67;2043589;86;21636;-82
2021/12/10 12:07:54;;;;;;;74.17;42.65;;;;;;;2.51;100.00;97480.09;2046861;87;21085;-82
2021/12/10 12:10:55;;;;;;;65.57;37.08;;;;;;;2.64;100.00;97479.61;2049273;87;21141;-83
2021/12/10 12:13:59;;;;;;;69.75;40.33;;;;;;;2.75;100.00;97478.03;2050033;87;21164;-83
2021/12/10 12:17:10;;;;;;;70.32;37.20;;;;;;;2.74;100.00;97465.24;2050173;87;22169;-82
2021/12/10 12:20:03;;;;;;;76.07;40.95;;;;;;;2.72;100.00;97463.31;1916140;93;21161;-82
2021/12/10 12:26:48;;;;;;;69.53;38.02;;;;;;;2.92;100.00;97461.22;1917296;93;21718;-83
2021/12/10 12:29:45;;;;;;;69.12;38.13;;;;;;;2.93;100.00;97456.39;1840067;95;21605;-82
2021/12/10 12:32:58;;;;;;;;;;;;;;;;;;;;;
2021/12/10 12:35:51;;;;;;;75.17;41.83;;;;;;;2.82;100.00;97447.16;1808809;97;21212;-83
2021/12/10 12:39:04;;;;;;;;;;;;;;;;;;;;;
2021/12/10 12:41:58;;;;;;;73.75;41.37;;;;;;;2.76;100.00;97440.87;1788893;98;21157;-85
2021/12/10 12:44:59;;;;;;;79.03;42.80;;;;;;;2.71;100.00;97443.61;1787714;100;21779;-84
2021/12/10 12:48:08;;;;;;;70.00;40.43;;;;;;;2.63;100.00;97448.28;1787552;100;21126;-83
2021/12/10 12:51:14;;;;;;;;;;;;;;;;;;;;;
2021/12/10 12:54:31;;;;;;;;;;;;;;;;;;;;;
2021/12/10 12:57:34;;;;;;;82.47;43.60;;;;;;;2.48;100.00;97448.60;1738308;102;21273;-83
2021/12/10 13:00:48;;;;;;;83.35;43.45;;;;;;;2.47;100.00;97452.12;1722514;99;21167;-82
2021/12/10 13:03:46;;;;;;;84.17;45.00;;;;;;;2.47;100.00;97449.54;1752445;100;21680;-82
2021/12/10 13:06:48;;;;;;;90.28;48.68;;;;;;;2.49;100.00;97442.46;1760124;100;21146;-82
2021/12/10 13:09:53;;;;;;;90.50;47.78;;;;;;;2.49;100.00;97445.05;1797696;96;21641;-83
2021/12/10 13:15:57;;;;;;;91.40;50.15;;;;;;;2.52;100.00;97441.64;1783704;96;21082;-83
2021/12/10 13:18:58;;;;;;;93.30;49.75;;;;;;;2.51;100.00;97443.91;1844382;96;21113;-82
2021/12/10 13:25:28;;;;;;;;;;;;;;;;;;;;;
2021/12/10 13:28:26;;;;;;;102.60;55.35;;;;;;;2.42;100.00;97443.58;1815143;98;21068;-82
2021/12/10 13:31:29;;;;;;;94.40;49.65;;;;;;;2.44;100.00;97444.70;1822671;97;21187;-84
2021/12/10 13:34:31;;;;;;;106.30;54.13;;;;;;;2.44;100.00;97447.28;1828701;96;21768;-84
2021/12/10 13:44:18;;;;;;;;;;;;;;;;;;;;;
2021/12/10 13:47:25;;;;;;;97.97;52.25;;;;;;;2.34;100.00;97448.72;1754381;101;22694;-84
2021/12/10 13:50:25;;;;;;;109.00;55.25;;;;;;;2.33;100.00;97454.05;1782676;98;21087;-83
2021/12/10 13:53:33;;;;;;;94.55;50.73;;;;;;;2.27;100.00;97450.31;1811195;98;21194;-84
2021/12/10 13:56:40;;;;;;;100.35;53.80;;;;;;;2.20;100.00;97454.52;1811417;97;21645;-83
2021/12/10 13:59:53;;;;;;;;;;;;;;;;;;;;;
2021/12/10 14:02:48;;;;;;;100.60;51.53;;;;;;;2.10;100.00;97457.20;1708299;101;21249;-84
2021/12/10 14:06:13;;;;;;;;;;;;;;;;;;;;;
2021/12/10 14:09:41;;;;;;;;;;;;;;;;;;;;;
2021/12/10 14:15:48;;;;;;;110.22;52.98;;;;;;;1.90;100.00;97456.65;1721442;103;21165;-84
2021/12/10 14:18:50;;;;;;;118.45;55.75;;;;;;;1.77;100.00;97455.48;1709033;101;21664;-85
2021/12/10 14:21:52;;;;;;;114.47;57.65;;;;;;;1.64;100.00;97459.27;1726386;103;21225;-83
2021/12/10 14:27:58;;;;;;;110.45;55.73;;;;;;;1.50;100.00;97460.34;1759204;100;21188;-85
2021/12/10 14:31:17;;;;;;;;;;;;;;;;;;;;;
2021/12/10 14:37:17;;;;;;;;;;;;;;;;;;;;;
2021/12/10 14:40:14;;;;;;;110.52;55.85;;;;;;;1.11;100.00;97464.13;1801304;99;21177;-85
2021/12/10 14:43:19;;;;;;;115.70;55.85;;;;;;;1.03;100.00;97469.22;1769123;101;21141;-83
2021/12/10 14:46:26;;;;;;;121.22;58.78;;;;;;;0.99;100.00;97469.17;1765453;101;21175;-83
2021/12/10 14:50:20;;;;;;;124.35;60.80;;;;;;;0.93;100.00;97474.13;1762671;101;21124;-85
2021/12/10 14:52:32;;;;;;;136.68;65.22;;;;;;;0.82;100.00;97475.98;1792163;97;21131;-83
2021/12/10 14:55:40;;;;;;;134.18;65.60;;;;;;;0.63;100.00;97480.45;1807163;98;21152;-80
2021/12/10 14:58:46;;;;;;;136.62;61.70;;;;;;;0.51;100.00;97478.10;1808379;98;21067;-81
2021/12/10 15:01:43;;;;;;;129.68;66.02;;;;;;;0.49;100.00;97476.16;1809590;97;21073;-80
2021/12/10 15:04:44;;;;;;;141.05;64.00;;;;;;;0.48;100.00;97475.02;1847691;93;21139;-81
2021/12/10 15:07:45;;;;;;;139.55;65.55;;;;;;;0.48;100.00;97478.41;1921886;93;21159;-85
2021/12/10 15:10:47;;;;;;;142.62;68.00;;;;;;;0.46;100.00;97484.19;1966879;87;21182;-84
2021/12/10 15:13:52;;;;;;;143.82;68.40;;;;;;;0.41;100.00;97488.14;2049415;83;21070;-86
2021/12/10 15:16:52;;;;;;;126.72;57.50;;;;;;;0.31;100.00;97492.06;2151450;83;21011;-89
2021/12/10 15:19:56;;;;;;;129.87;60.12;;;;;;;0.17;100.00;97493.83;2107516;83;21083;-88
2021/12/10 15:22:56;;;;;;;133.70;64.07;;;;;;;0.01;100.00;97493.18;2150733;81;21670;-87
2021/12/10 15:25:59;;;;;;;126.78;59.63;;;;;;;-0.07;100.00;97493.89;2108751;82;20995;-88
2021/12/10 15:28:59;;;;;;;127.97;57.48;;;;;;;-0.09;100.00;97498.38;2183942;81;21063;-90
2021/12/10 15:32:00;;;;;;;115.88;56.45;;;;;;;-0.15;100.00;97494.26;2142897;82;21056;-86
2021/12/10 15:35:01;;;;;;;138.10;65.30;;;;;;;-0.21;100.00;97499.48;2143781;83;20995;-86
2021/12/10 15:38:02;;;;;;;149.95;67.62;;;;;;;-0.23;100.00;97502.68;2188741;81;21042;-85
2021/12/10 15:41:03;;;;;;;145.95;68.45;;;;;;;-0.21;100.00;97499.96;2239672;79;20969;-85
2021/12/10 15:44:04;;;;;;;139.80;64.60;;;;;;;-0.24;100.00;97495.92;2226197;79;21539;-85
2021/12/10 15:47:07;;;;;;;123.35;61.02;;;;;;;-0.25;100.00;97505.88;2225780;79;20992;-87
2021/12/10 15:50:15;;;;;;;137.95;62.45;;;;;;;-0.24;100.00;97502.83;2169899;82;21037;-83
2021/12/10 15:53:15;;;;;;;138.55;64.62;;;;;;;-0.19;100.00;97501.91;2150186;83;21143;-88
2021/12/10 15:56:18;;;;;;;136.90;62.27;;;;;;;-0.15;100.00;97504.08;2253126;79;21547;-86
2021/12/10 15:59:20;;;;;;;135.68;62.95;;;;;;;-0.10;100.00;97499.77;2248955;78;21308;-88
2021/12/10 16:02:23;;;;;;;142.72;66.50;;;;;;;-0.03;100.00;97499.55;2247926;78;20977;-85
2021/12/10 16:05:27;;;;;;;150.10;64.72;;;;;;;-0.03;100.00;97486.20;2276125;78;21096;-83
2021/12/10 16:08:29;;;;;;;143.22;62.83;;;;;;;0.06;100.00;97492.73;2280627;78;20989;-88
2021/12/10 16:12:15;;;;;;;143.62;63.55;;;;;;;0.12;100.00;97487.83;2286120;78;21505;-87
2021/12/10 16:14:46;;;;;;;151.07;67.65;;;;;;;0.17;100.00;97490.77;2206208;80;21083;-84
2021/12/10 16:17:47;;;;;;;136.95;64.32;;;;;;;0.16;100.00;97487.86;2215836;80;21000;-86
2021/12/10 16:20:49;;;;;;;134.15;63.98;;;;;;;0.10;100.00;97489.75;2215616;80;21023;-90
2021/12/10 16:23:50;;;;;;;141.95;64.92;;;;;;;-0.07;100.00;97486.17;2215668;80;21072;-78
2021/12/10 16:26:51;;;;;;;149.85;65.42;;;;;;;-0.11;100.00;97487.39;2215373;80;21013;-80
2021/12/10 16:29:52;;;;;;;150.10;66.15;;;;;;;-0.21;100.00;97486.63;2215423;80;21119;-80
2021/12/10 16:32:53;;;;;;;149.77;67.27;;;;;;;-0.36;100.00;97488.05;2215562;80;21016;-80
2021/12/10 16:35:57;;;;;;;149.00;68.00;;;;;;;-0.49;100.00;97490.91;2203092;80;21027;-85
2021/12/10 16:38:57;;;;;;;141.85;62.27;;;;;;;-0.62;100.00;97498.95;2176891;82;21040;-83
2021/12/10 16:41:58;;;;;;;130.25;57.45;;;;;;;-0.70;100.00;97509.58;2177262;82;21637;-82
2021/12/10 16:44:58;;;;;;;129.78;58.83;;;;;;;-0.70;100.00;97514.72;2177017;82;20982;-85
2021/12/10 16:47:59;;;;;;;126.55;56.70;;;;;;;-0.68;100.00;97510.25;2177515;82;21044;-82
2021/12/10 16:51:00;;;;;;;129.55;57.93;;;;;;;-0.68;100.00;97502.53;2176977;82;21043;-81
2021/12/10 16:54:01;;;;;;;141.80;61.75;;;;;;;-0.76;100.00;97509.64;2189708;81;21012;-86
2021/12/10 16:57:02;;;;;;;126.65;60.43;;;;;;;-0.75;100.00;97505.31;2192757;81;21032;-82
2021/12/10 17:00:03;;;;;;;128.30;59.48;;;;;;;-0.69;100.00;97499.63;2192722;81;20973;-82
2021/12/10 17:03:03;;;;;;;140.05;59.75;;;;;;;-0.63;100.00;97491.38;2193290;81;21099;-82
2021/12/10 17:06:10;;;;;;;143.75;63.08;;;;;;;-0.60;100.00;97487.23;2192865;81;21012;-87
2021/12/10 17:09:09;;;;;;;125.40;61.58;;;;;;;-0.58;100.00;97484.84;2173760;80;21072;-89
2021/12/10 17:12:12;;;;;;;116.65;57.23;;;;;;;-0.53;100.00;97490.06;2258138;78;21125;-88
2021/12/10 17:15:13;;;;;;;114.72;53.83;;;;;;;-0.54;100.00;97486.69;2259987;78;21030;-88
2021/12/10 17:18:16;;;;;;;129.97;57.60;;;;;;;-0.53;100.00;97482.34;2259755;79;21484;-86
2021/12/10 17:21:16;;;;;;;132.15;60.95;;;;;;;-0.48;100.00;97490.44;2260312;78;20958;-86
2021/12/10 17:24:17;;;;;;;107.87;52.80;;;;;;;-0.49;100.00;97488.82;2259803;78;21070;-91
2021/12/10 17:27:20;;;;;;;131.18;59.15;;;;;;;-0.50;100.00;97495.73;2258540;79;21105;-87
2021/12/10 17:30:20;;;;;;;123.02;56.53;;;;;;;-0.54;100.00;97496.97;2260135;79;21038;-85
2021/12/10 17:33:21;;;;;;;127.60;58.25;;;;;;;-0.62;100.00;97493.80;2259457;79;21035;-84
2021/12/10 17:36:22;;;;;;;127.38;57.67;;;;;;;-0.62;100.00;97493.80;2259602;79;20934;-84
2021/12/10 17:39:23;;;;;;;116.90;56.68;;;;;;;-0.64;100.00;97493.58;2261952;77;20993;-87
2021/12/10 17:42:24;;;;;;;124.80;60.20;;;;;;;-0.76;100.00;97499.36;2259740;79;21077;-90
2021/12/10 17:45:25;;;;;;;119.65;57.95;;;;;;;-0.80;100.00;97500.60;2260042;79;21054;-85
2021/12/10 17:48:29;;;;;;;130.65;61.77;;;;;;;-0.84;100.00;97500.52;2260780;79;20978;-87
2021/12/10 17:51:28;;;;;;;122.00;57.27;;;;;;;-0.82;100.00;97499.94;2259722;79;21054;-86
2021/12/10 17:54:29;;;;;;;118.35;56.95;;;;;;;-0.80;100.00;97504.45;2260165;79;20963;-83
2021/12/10 17:57:30;;;;;;;110.63;52.98;;;;;;;-0.76;100.00;97499.36;2276141;77;20974;-86
2021/12/10 18:00:31;;;;;;;133.85;64.37;;;;;;;-0.75;100.00;97504.84;2234591;80;20942;-88
2021/12/10 18:03:32;;;;;;;126.15;58.10;;;;;;;-0.68;100.00;97505.91;2235097;80;21020;-86
2021/12/10 18:06:33;;;;;;;121.72;58.10;;;;;;;-0.63;100.00;97508.89;2231812;80;21015;-85
2021/12/10 18:09:34;;;;;;;113.85;55.75;;;;;;;-0.67;100.00;97504.16;2231788;80;21071;-84
2021/12/10 18:12:35;;;;;;;128.97;59.18;;;;;;;-0.69;100.00;97511.20;2239161;79;21018;-86
2021/12/10 18:15:36;;;;;;;114.40;54.58;;;;;;;-0.64;100.00;97512.42;2243815;79;21002;-87
2021/12/10 18:18:37;;;;;;;122.45;59.30;;;;;;;-0.61;100.00;97511.32;2243668;79;20944;-85
2021/12/10 18:21:38;;;;;;;118.57;55.88;;;;;;;-0.55;100.00;97513.80;2244392;79;21002;-88
2021/12/10 18:24:39;;;;;;;121.42;57.98;;;;;;;-0.50;100.00;97521.92;2244598;79;20974;-86
2021/12/10 18:27:40;;;;;;;113.70;55.88;;;;;;;-0.50;100.00;97523.20;2243093;79;20940;-85
2021/12/10 18:30:40;;;;;;;106.00;51.53;;;;;;;-0.44;100.00;97520.09;2243562;79;20932;-83
2021/12/10 18:33:42;;;;;;;112.15;54.98;;;;;;;-0.44;100.00;97528.61;2244119;79;20948;-87
2021/12/10 18:36:43;;;;;;;109.03;54.60;;;;;;;-0.50;100.00;97530.92;2243968;79;20947;-87
2021/12/10 18:39:46;;;;;;;107.75;52.38;;;;;;;-0.52;100.00;97529.78;2243767;79;21052;-87
2021/12/10 18:42:49;;;;;;;95.90;45.88;;;;;;;-0.55;100.00;97531.31;2236995;79;21003;-84
2021/12/10 18:45:49;;;;;;;95.15;50.10;;;;;;;-0.62;100.00;97532.84;2206835;79;21017;-85
2021/12/10 18:48:51;;;;;;;97.90;47.88;;;;;;;-0.68;100.00;97533.38;2235747;79;21514;-86
2021/12/10 18:51:53;;;;;;;107.05;49.42;;;;;;;-0.69;100.00;97526.14;2243393;79;20952;-87
2021/12/10 18:54:54;;;;;;;116.12;53.33;;;;;;;-0.68;100.00;97527.77;2243808;79;21022;-87
2021/12/10 18:57:55;;;;;;;111.90;51.00;;;;;;;-0.72;100.00;97531.58;2243271;79;21051;-84
2021/12/10 19:00:56;;;;;;;108.07;50.95;;;;;;;-0.72;100.00;97525.63;2243579;79;20998;-86
2021/12/10 19:04:05;;;;;;;107.50;50.88;;;;;;;-0.72;100.00;97528.20;2231197;79;20987;-86
2021/12/10 19:06:59;;;;;;;93.72;44.73;;;;;;;-0.74;100.00;97524.92;2202236;81;21505;-86
2021/12/10 19:10:00;;;;;;;104.55;48.00;;;;;;;-0.70;100.00;97527.10;2204206;81;21062;-85
2021/12/10 19:13:01;;;;;;;104.32;48.08;;;;;;;-0.69;100.00;97531.77;2212909;79;20933;-85
2021/12/10 19:16:02;;;;;;;118.25;53.35;;;;;;;-0.68;100.00;97534.19;2240840;79;20995;-85
2021/12/10 19:19:03;;;;;;;112.83;53.08;;;;;;;-0.71;100.00;97539.63;2232700;79;20916;-86
2021/12/10 19:22:03;;;;;;;101.35;48.45;;;;;;;-0.74;100.00;97548.06;2205018;79;21567;-87
2021/12/10 19:25:04;;;;;;;89.52;42.38;;;;;;;-0.68;100.00;97542.38;2206459;79;20942;-85
2021/12/10 19:28:05;;;;;;;107.37;50.48;;;;;;;-0.70;100.00;97551.52;2206341;79;21046;-84
2021/12/10 19:31:06;;;;;;;108.57;50.60;;;;;;;-0.67;100.00;97545.29;2241264;79;20935;-85
2021/12/10 19:34:07;;;;;;;103.22;48.70;;;;;;;-0.64;100.00;97554.00;2240664;79;22004;-84
2021/12/10 19:37:07;;;;;;;106.70;51.50;;;;;;;-0.64;100.00;97554.00;2241161;79;20964;-84
2021/12/10 19:40:08;;;;;;;102.38;49.80;;;;;;;-0.54;100.00;97570.25;2241250;79;20948;-82
2021/12/10 19:43:11;;;;;;;113.85;54.27;;;;;;;-0.45;100.00;97573.77;2243598;79;21005;-83
2021/12/10 19:46:14;;;;;;;92.20;47.17;;;;;;;-0.38;100.00;97582.52;2243715;79;21462;-85
2021/12/10 19:49:14;;;;;;;102.80;49.38;;;;;;;-0.25;100.00;97583.05;2243434;79;21027;-84
2021/12/10 19:52:15;;;;;;;106.52;49.58;;;;;;;-0.18;100.00;97580.27;2243395;79;21047;-85
2021/12/10 19:55:16;;;;;;;110.63;50.35;;;;;;;-0.14;100.00;97580.79;2234578;79;21010;-84
2021/12/10 19:58:17;;;;;;;108.97;50.20;;;;;;;-0.15;100.00;97581.75;2221915;80;21408;-84
2021/12/10 20:01:18;;;;;;;108.63;51.92;;;;;;;-0.12;100.00;97584.84;2211653;80;21036;-84
2021/12/10 20:04:18;;;;;;;114.67;52.48;;;;;;;-0.06;100.00;97580.42;2223959;80;20956;-92
2021/12/10 20:07:19;;;;;;;113.00;54.42;;;;;;;0.02;100.00;97584.87;2250945;79;21038;-89
2021/12/10 20:10:22;;;;;;;115.52;54.08;;;;;;;0.15;100.00;97572.97;2230307;79;20977;-87
2021/12/10 20:13:22;;;;;;;120.55;56.50;;;;;;;0.15;100.00;97579.41;2239657;78;21039;-84
2021/12/10 20:16:23;;;;;;;110.63;51.48;;;;;;;0.14;100.00;97585.51;2213735;79;21491;-82
2021/12/10 20:19:24;;;;;;;122.33;55.88;;;;;;;0.11;100.00;97579.36;2207365;79;21510;-86
2021/12/10 20:22:24;;;;;;;117.15;52.50;;;;;;;0.07;100.00;97594.27;2207189;79;21431;-83
2021/12/10 20:25:27;;;;;;;112.75;52.60;;;;;;;0.00;100.00;97602.23;2217941;79;21042;-85
2021/12/10 20:28:28;;;;;;;107.30;49.95;;;;;;;0.02;100.00;97597.75;2213274;79;21630;-86
2021/12/10 20:31:28;;;;;;;117.77;53.05;;;;;;;0.06;100.00;97600.36;2232385;79;20901;-83
2021/12/10 20:34:31;;;;;;;103.72;52.03;;;;;;;0.00;100.00;97597.08;2231140;79;21028;-82
2021/12/10 20:37:32;;;;;;;108.47;51.02;;;;;;;0.07;100.00;97605.03;2207207;79;21507;-83
2021/12/10 20:40:33;;;;;;;106.32;52.38;;;;;;;0.01;100.00;97606.90;2213520;79;20983;-84
2021/12/10 20:43:38;;;;;;;102.78;50.70;;;;;;;-0.04;100.00;97605.54;2211709;79;21479;-85
2021/12/10 20:46:38;;;;;;;109.42;50.12;;;;;;;-0.03;100.00;97605.88;2207205;79;21007;-83
2021/12/10 20:49:39;;;;;;;108.65;49.50;;;;;;;-0.05;100.00;97609.06;2209034;79;20913;-84
2021/12/10 20:52:50;;;;;;;108.72;51.80;;;;;;;-0.05;100.00;97615.98;2217668;79;20979;-85
2021/12/10 20:55:42;;;;;;;118.45;53.35;;;;;;;-0.06;100.00;97616.45;2238777;79;21074;-84